sensor_id;sensor_type;location;lat;lon;timestamp;P1;durP1;ratioP1;P2;durP2;ratioP2
54993;SDS011;40891;47.242;8.648;2023-03-01T00:00:53;26.23;;;14.33;;
54993;SDS011;40891;47.242;8.648;2023-03-01T00:03:19;26.67;;;13.93;;
54993;SDS011;40891;47.242;8.648;2023-03-01T00:05:44;23.17;;;13.30;;
54993;SDS011;40891;47.242;8.648;2023-03-01T00:08:10;24.90;;;13.90;;
54993;SDS011;40891;47.242;8.648;2023-03-01T00:10:36;26.80;;;14.33;;
54993;SDS011;40891;47.242;8.648;2023-03-01T00:13:01;26.37;;;14.07;;
54993;SDS011;40891;47.242;8.648;2023-03-01T00:15:27;26.20;;;14.10;;
54993;SDS011;40891;47.242;8.648;2023-03-01T00:17:52;27.30;;;14.40;;
54993;SDS011;40891;47.242;8.648;2023-03-01T00:20:18;23.77;;;13.30;;
54993;SDS011;40891;47.242;8.648;2023-03-01T00:22:43;26.70;;;12.97;;
54993;SDS011;40891;47.242;8.648;2023-03-01T00:25:08;26.17;;;13.83;;
54993;SDS011;40891;47.242;8.648;2023-03-01T00:27:34;26.57;;;14.37;;
54993;SDS011;40891;47.242;8.648;2023-03-01T00:29:59;26.80;;;14.53;;
54993;SDS011;40891;47.242;8.648;2023-03-01T00:32:24;26.57;;;15.00;;
54993;SDS011;40891;47.242;8.648;2023-03-01T00:34:50;29.20;;;13.77;;
54993;SDS011;40891;47.242;8.648;2023-03-01T00:37:21;25.63;;;13.93;;
54993;SDS011;40891;47.242;8.648;2023-03-01T00:39:47;28.47;;;15.07;;
54993;SDS011;40891;47.242;8.648;2023-03-01T00:42:12;27.17;;;14.27;;
54993;SDS011;40891;47.242;8.648;2023-03-01T00:44:38;27.10;;;14.47;;
54993;SDS011;40891;47.242;8.648;2023-03-01T00:47:03;27.47;;;14.33;;
54993;SDS011;40891;47.242;8.648;2023-03-01T00:49:28;25.90;;;14.70;;
54993;SDS011;40891;47.242;8.648;2023-03-01T00:51:54;24.70;;;13.13;;
54993;SDS011;40891;47.242;8.648;2023-03-01T00:54:19;26.50;;;14.70;;
54993;SDS011;40891;47.242;8.648;2023-03-01T00:56:44;27.13;;;14.43;;
54993;SDS011;40891;47.242;8.648;2023-03-01T00:59:10;28.47;;;14.67;;
54993;SDS011;40891;47.242;8.648;2023-03-01T01:01:35;26.53;;;15.27;;
54993;SDS011;40891;47.242;8.648;2023-03-01T01:04:05;28.87;;;15.47;;
54993;SDS011;40891;47.242;8.648;2023-03-01T01:06:33;27.70;;;15.57;;
54993;SDS011;40891;47.242;8.648;2023-03-01T01:09:02;27.50;;;15.07;;
54993;SDS011;40891;47.242;8.648;2023-03-01T01:11:28;29.87;;;15.07;;
54993;SDS011;40891;47.242;8.648;2023-03-01T01:13:54;28.13;;;15.33;;
54993;SDS011;40891;47.242;8.648;2023-03-01T01:16:22;26.40;;;14.93;;
54993;SDS011;40891;47.242;8.648;2023-03-01T01:18:48;25.80;;;15.07;;
54993;SDS011;40891;47.242;8.648;2023-03-01T01:21:15;30.07;;;15.93;;
54993;SDS011;40891;47.242;8.648;2023-03-01T01:23:41;24.40;;;14.80;;
54993;SDS011;40891;47.242;8.648;2023-03-01T01:26:16;28.33;;;15.90;;
54993;SDS011;40891;47.242;8.648;2023-03-01T01:28:43;30.90;;;15.90;;
54993;SDS011;40891;47.242;8.648;2023-03-01T01:31:08;26.47;;;15.40;;
54993;SDS011;40891;47.242;8.648;2023-03-01T01:33:34;27.70;;;15.50;;
54993;SDS011;40891;47.242;8.648;2023-03-01T01:35:59;26.40;;;14.53;;
54993;SDS011;40891;47.242;8.648;2023-03-01T01:38:25;33.60;;;15.27;;
54993;SDS011;40891;47.242;8.648;2023-03-01T01:40:50;28.13;;;15.30;;
54993;SDS011;40891;47.242;8.648;2023-03-01T01:43:24;26.03;;;15.20;;
54993;SDS011;40891;47.242;8.648;2023-03-01T01:45:55;27.47;;;14.67;;
54993;SDS011;40891;47.242;8.648;2023-03-01T01:48:24;26.90;;;14.80;;
54993;SDS011;40891;47.242;8.648;2023-03-01T01:51:05;31.30;;;15.77;;
54993;SDS011;40891;47.242;8.648;2023-03-01T01:53:34;26.37;;;14.13;;
54993;SDS011;40891;47.242;8.648;2023-03-01T01:56:01;26.53;;;13.93;;
54993;SDS011;40891;47.242;8.648;2023-03-01T01:58:28;27.17;;;14.53;;
54993;SDS011;40891;47.242;8.648;2023-03-01T02:00:55;28.00;;;14.33;;
54993;SDS011;40891;47.242;8.648;2023-03-01T02:03:28;29.10;;;14.73;;
54993;SDS011;40891;47.242;8.648;2023-03-01T02:06:00;25.90;;;14.17;;
54993;SDS011;40891;47.242;8.648;2023-03-01T02:08:31;25.73;;;13.60;;
54993;SDS011;40891;47.242;8.648;2023-03-01T02:11:00;27.10;;;14.97;;
54993;SDS011;40891;47.242;8.648;2023-03-01T02:13:26;29.23;;;14.23;;
54993;SDS011;40891;47.242;8.648;2023-03-01T02:15:52;27.43;;;15.03;;
54993;SDS011;40891;47.242;8.648;2023-03-01T02:18:18;31.23;;;15.00;;
54993;SDS011;40891;47.242;8.648;2023-03-01T02:20:51;29.07;;;14.83;;
54993;SDS011;40891;47.242;8.648;2023-03-01T02:23:20;30.33;;;15.43;;
54993;SDS011;40891;47.242;8.648;2023-03-01T02:25:52;28.10;;;14.27;;
54993;SDS011;40891;47.242;8.648;2023-03-01T02:28:25;33.17;;;16.03;;
54993;SDS011;40891;47.242;8.648;2023-03-01T02:30:51;31.33;;;15.77;;
54993;SDS011;40891;47.242;8.648;2023-03-01T02:33:37;29.50;;;15.40;;
54993;SDS011;40891;47.242;8.648;2023-03-01T02:36:05;31.33;;;16.07;;
54993;SDS011;40891;47.242;8.648;2023-03-01T02:38:34;28.73;;;15.60;;
54993;SDS011;40891;47.242;8.648;2023-03-01T02:40:59;32.83;;;15.70;;
54993;SDS011;40891;47.242;8.648;2023-03-01T02:43:28;30.83;;;14.73;;
54993;SDS011;40891;47.242;8.648;2023-03-01T02:46:03;30.13;;;16.07;;
54993;SDS011;40891;47.242;8.648;2023-03-01T02:48:43;33.17;;;16.20;;
54993;SDS011;40891;47.242;8.648;2023-03-01T02:54:07;29.87;;;16.33;;
54993;SDS011;40891;47.242;8.648;2023-03-01T02:56:40;33.20;;;17.00;;
54993;SDS011;40891;47.242;8.648;2023-03-01T02:59:07;32.33;;;16.63;;
54993;SDS011;40891;47.242;8.648;2023-03-01T03:01:33;30.90;;;15.80;;
54993;SDS011;40891;47.242;8.648;2023-03-01T03:04:02;31.30;;;16.60;;
54993;SDS011;40891;47.242;8.648;2023-03-01T03:06:29;30.23;;;15.90;;
54993;SDS011;40891;47.242;8.648;2023-03-01T03:08:54;31.90;;;15.57;;
54993;SDS011;40891;47.242;8.648;2023-03-01T03:11:19;33.03;;;17.00;;
54993;SDS011;40891;47.242;8.648;2023-03-01T03:13:45;34.40;;;16.90;;
54993;SDS011;40891;47.242;8.648;2023-03-01T03:16:13;32.83;;;16.20;;
54993;SDS011;40891;47.242;8.648;2023-03-01T03:18:38;35.10;;;17.93;;
54993;SDS011;40891;47.242;8.648;2023-03-01T03:21:06;34.03;;;17.03;;
54993;SDS011;40891;47.242;8.648;2023-03-01T03:23:35;31.73;;;17.37;;
54993;SDS011;40891;47.242;8.648;2023-03-01T03:26:01;33.73;;;17.13;;
54993;SDS011;40891;47.242;8.648;2023-03-01T03:28:29;35.87;;;17.57;;
54993;SDS011;40891;47.242;8.648;2023-03-01T03:31:00;31.77;;;16.63;;
54993;SDS011;40891;47.242;8.648;2023-03-01T03:33:29;33.57;;;17.47;;
54993;SDS011;40891;47.242;8.648;2023-03-01T03:35:55;36.43;;;17.70;;
54993;SDS011;40891;47.242;8.648;2023-03-01T03:38:20;35.43;;;18.30;;
54993;SDS011;40891;47.242;8.648;2023-03-01T03:40:48;36.53;;;18.17;;
54993;SDS011;40891;47.242;8.648;2023-03-01T03:43:27;31.93;;;17.10;;
54993;SDS011;40891;47.242;8.648;2023-03-01T03:45:53;34.53;;;17.27;;
54993;SDS011;40891;47.242;8.648;2023-03-01T03:48:19;36.93;;;17.77;;
54993;SDS011;40891;47.242;8.648;2023-03-01T03:50:49;39.77;;;17.77;;
54993;SDS011;40891;47.242;8.648;2023-03-01T03:53:16;36.17;;;17.77;;
54993;SDS011;40891;47.242;8.648;2023-03-01T03:55:42;32.73;;;16.70;;
54993;SDS011;40891;47.242;8.648;2023-03-01T03:58:09;35.03;;;17.40;;
54993;SDS011;40891;47.242;8.648;2023-03-01T04:00:36;37.60;;;18.07;;
54993;SDS011;40891;47.242;8.648;2023-03-01T04:03:04;36.53;;;18.27;;
54993;SDS011;40891;47.242;8.648;2023-03-01T04:05:29;34.23;;;17.00;;
54993;SDS011;40891;47.242;8.648;2023-03-01T04:07:55;27.87;;;15.27;;
54993;SDS011;40891;47.242;8.648;2023-03-01T04:10:31;34.47;;;16.37;;
54993;SDS011;40891;47.242;8.648;2023-03-01T04:12:58;31.03;;;17.23;;
54993;SDS011;40891;47.242;8.648;2023-03-01T04:15:25;34.40;;;17.47;;
54993;SDS011;40891;47.242;8.648;2023-03-01T04:17:52;35.60;;;17.53;;
54993;SDS011;40891;47.242;8.648;2023-03-01T04:20:20;31.47;;;16.70;;
54993;SDS011;40891;47.242;8.648;2023-03-01T04:22:50;34.43;;;17.50;;
54993;SDS011;40891;47.242;8.648;2023-03-01T04:25:23;34.03;;;17.40;;
54993;SDS011;40891;47.242;8.648;2023-03-01T04:27:49;35.03;;;17.67;;
54993;SDS011;40891;47.242;8.648;2023-03-01T04:30:14;34.10;;;17.27;;
54993;SDS011;40891;47.242;8.648;2023-03-01T04:32:40;32.83;;;16.50;;
54993;SDS011;40891;47.242;8.648;2023-03-01T04:35:05;31.37;;;16.80;;
54993;SDS011;40891;47.242;8.648;2023-03-01T04:37:30;30.80;;;16.87;;
54993;SDS011;40891;47.242;8.648;2023-03-01T04:39:56;35.80;;;17.03;;
54993;SDS011;40891;47.242;8.648;2023-03-01T04:42:21;30.60;;;16.53;;
54993;SDS011;40891;47.242;8.648;2023-03-01T04:44:46;29.27;;;15.50;;
54993;SDS011;40891;47.242;8.648;2023-03-01T04:47:12;29.83;;;16.13;;
54993;SDS011;40891;47.242;8.648;2023-03-01T04:49:37;29.00;;;15.97;;
54993;SDS011;40891;47.242;8.648;2023-03-01T04:52:03;29.33;;;15.47;;
54993;SDS011;40891;47.242;8.648;2023-03-01T04:54:29;31.20;;;16.40;;
54993;SDS011;40891;47.242;8.648;2023-03-01T04:56:55;30.33;;;16.27;;
54993;SDS011;40891;47.242;8.648;2023-03-01T04:59:20;30.93;;;16.63;;
54993;SDS011;40891;47.242;8.648;2023-03-01T05:01:49;27.80;;;16.03;;
54993;SDS011;40891;47.242;8.648;2023-03-01T05:04:20;32.53;;;16.07;;
54993;SDS011;40891;47.242;8.648;2023-03-01T05:06:46;31.57;;;16.00;;
54993;SDS011;40891;47.242;8.648;2023-03-01T05:09:11;31.53;;;16.83;;
54993;SDS011;40891;47.242;8.648;2023-03-01T05:11:36;31.57;;;16.60;;
54993;SDS011;40891;47.242;8.648;2023-03-01T05:14:02;32.20;;;17.50;;
54993;SDS011;40891;47.242;8.648;2023-03-01T05:16:28;29.87;;;15.47;;
54993;SDS011;40891;47.242;8.648;2023-03-01T05:18:55;29.93;;;15.67;;
54993;SDS011;40891;47.242;8.648;2023-03-01T05:21:21;32.73;;;16.80;;
54993;SDS011;40891;47.242;8.648;2023-03-01T05:23:47;28.27;;;15.63;;
54993;SDS011;40891;47.242;8.648;2023-03-01T05:26:12;31.40;;;17.20;;
54993;SDS011;40891;47.242;8.648;2023-03-01T05:28:38;31.97;;;15.00;;
54993;SDS011;40891;47.242;8.648;2023-03-01T05:31:03;35.07;;;17.50;;
54993;SDS011;40891;47.242;8.648;2023-03-01T05:33:34;30.23;;;15.90;;
54993;SDS011;40891;47.242;8.648;2023-03-01T05:36:00;31.43;;;15.97;;
54993;SDS011;40891;47.242;8.648;2023-03-01T05:38:26;30.20;;;15.97;;
54993;SDS011;40891;47.242;8.648;2023-03-01T05:40:51;29.63;;;16.53;;
54993;SDS011;40891;47.242;8.648;2023-03-01T05:43:16;29.43;;;14.50;;
54993;SDS011;40891;47.242;8.648;2023-03-01T05:45:43;32.97;;;16.97;;
54993;SDS011;40891;47.242;8.648;2023-03-01T05:48:09;28.47;;;15.20;;
54993;SDS011;40891;47.242;8.648;2023-03-01T05:50:36;30.10;;;16.07;;
54993;SDS011;40891;47.242;8.648;2023-03-01T05:53:05;31.83;;;15.80;;
54993;SDS011;40891;47.242;8.648;2023-03-01T05:55:39;30.20;;;16.07;;
54993;SDS011;40891;47.242;8.648;2023-03-01T05:58:06;29.83;;;15.80;;
54993;SDS011;40891;47.242;8.648;2023-03-01T06:00:34;28.83;;;15.87;;
54993;SDS011;40891;47.242;8.648;2023-03-01T06:03:00;29.03;;;15.60;;
54993;SDS011;40891;47.242;8.648;2023-03-01T06:05:26;31.23;;;16.63;;
54993;SDS011;40891;47.242;8.648;2023-03-01T06:07:52;29.00;;;15.47;;
54993;SDS011;40891;47.242;8.648;2023-03-01T06:10:19;29.93;;;16.43;;
54993;SDS011;40891;47.242;8.648;2023-03-01T06:12:45;32.27;;;15.87;;
54993;SDS011;40891;47.242;8.648;2023-03-01T06:15:13;31.10;;;15.80;;
54993;SDS011;40891;47.242;8.648;2023-03-01T06:17:40;30.30;;;15.53;;
54993;SDS011;40891;47.242;8.648;2023-03-01T06:20:08;26.50;;;14.40;;
54993;SDS011;40891;47.242;8.648;2023-03-01T06:22:40;29.60;;;15.30;;
54993;SDS011;40891;47.242;8.648;2023-03-01T06:25:07;27.37;;;15.53;;
54993;SDS011;40891;47.242;8.648;2023-03-01T06:27:33;29.63;;;15.77;;
54993;SDS011;40891;47.242;8.648;2023-03-01T06:29:58;29.20;;;16.27;;
54993;SDS011;40891;47.242;8.648;2023-03-01T06:32:23;28.93;;;15.67;;
54993;SDS011;40891;47.242;8.648;2023-03-01T06:34:49;29.87;;;15.70;;
54993;SDS011;40891;47.242;8.648;2023-03-01T06:37:15;29.33;;;15.80;;
54993;SDS011;40891;47.242;8.648;2023-03-01T06:39:40;24.97;;;14.17;;
54993;SDS011;40891;47.242;8.648;2023-03-01T06:42:07;28.93;;;14.93;;
54993;SDS011;40891;47.242;8.648;2023-03-01T06:44:33;26.87;;;15.20;;
54993;SDS011;40891;47.242;8.648;2023-03-01T06:46:58;27.60;;;14.70;;
54993;SDS011;40891;47.242;8.648;2023-03-01T06:49:24;29.27;;;15.17;;
54993;SDS011;40891;47.242;8.648;2023-03-01T06:51:49;32.30;;;15.53;;
54993;SDS011;40891;47.242;8.648;2023-03-01T06:54:14;29.53;;;15.30;;
54993;SDS011;40891;47.242;8.648;2023-03-01T06:56:40;29.73;;;14.87;;
54993;SDS011;40891;47.242;8.648;2023-03-01T06:59:05;27.80;;;14.70;;
54993;SDS011;40891;47.242;8.648;2023-03-01T07:01:31;28.17;;;14.60;;
54993;SDS011;40891;47.242;8.648;2023-03-01T07:03:56;28.67;;;15.37;;
54993;SDS011;40891;47.242;8.648;2023-03-01T07:06:22;29.47;;;15.73;;
54993;SDS011;40891;47.242;8.648;2023-03-01T07:08:48;31.70;;;16.60;;
54993;SDS011;40891;47.242;8.648;2023-03-01T07:11:13;25.67;;;13.90;;
54993;SDS011;40891;47.242;8.648;2023-03-01T07:13:39;29.40;;;15.67;;
54993;SDS011;40891;47.242;8.648;2023-03-01T07:16:04;31.83;;;15.70;;
54993;SDS011;40891;47.242;8.648;2023-03-01T07:18:30;28.37;;;15.90;;
54993;SDS011;40891;47.242;8.648;2023-03-01T07:20:55;28.70;;;15.27;;
54993;SDS011;40891;47.242;8.648;2023-03-01T07:23:21;29.50;;;14.60;;
54993;SDS011;40891;47.242;8.648;2023-03-01T07:25:52;29.37;;;15.77;;
54993;SDS011;40891;47.242;8.648;2023-03-01T07:28:19;27.57;;;14.17;;
54993;SDS011;40891;47.242;8.648;2023-03-01T07:30:44;28.50;;;15.00;;
54993;SDS011;40891;47.242;8.648;2023-03-01T07:33:09;28.03;;;14.57;;
54993;SDS011;40891;47.242;8.648;2023-03-01T07:35:35;26.43;;;14.53;;
54993;SDS011;40891;47.242;8.648;2023-03-01T07:38:00;28.70;;;14.90;;
54993;SDS011;40891;47.242;8.648;2023-03-01T07:40:25;27.07;;;14.30;;
54993;SDS011;40891;47.242;8.648;2023-03-01T07:42:54;28.93;;;14.27;;
54993;SDS011;40891;47.242;8.648;2023-03-01T07:45:20;32.70;;;14.67;;
54993;SDS011;40891;47.242;8.648;2023-03-01T07:47:46;24.90;;;14.43;;
54993;SDS011;40891;47.242;8.648;2023-03-01T07:50:11;28.00;;;13.87;;
54993;SDS011;40891;47.242;8.648;2023-03-01T07:52:38;26.17;;;14.13;;
54993;SDS011;40891;47.242;8.648;2023-03-01T07:55:03;28.97;;;14.80;;
54993;SDS011;40891;47.242;8.648;2023-03-01T07:57:29;29.13;;;14.10;;
54993;SDS011;40891;47.242;8.648;2023-03-01T07:59:54;30.47;;;14.87;;
54993;SDS011;40891;47.242;8.648;2023-03-01T08:02:19;27.97;;;15.07;;
54993;SDS011;40891;47.242;8.648;2023-03-01T08:04:45;28.43;;;15.00;;
54993;SDS011;40891;47.242;8.648;2023-03-01T08:07:10;26.70;;;14.50;;
54993;SDS011;40891;47.242;8.648;2023-03-01T08:09:35;28.93;;;14.80;;
54993;SDS011;40891;47.242;8.648;2023-03-01T08:12:04;26.37;;;14.50;;
54993;SDS011;40891;47.242;8.648;2023-03-01T08:14:30;29.80;;;14.87;;
54993;SDS011;40891;47.242;8.648;2023-03-01T08:16:56;27.30;;;14.70;;
54993;SDS011;40891;47.242;8.648;2023-03-01T08:19:22;27.87;;;14.53;;
54993;SDS011;40891;47.242;8.648;2023-03-01T08:21:47;29.43;;;13.97;;
54993;SDS011;40891;47.242;8.648;2023-03-01T08:24:13;28.93;;;14.33;;
54993;SDS011;40891;47.242;8.648;2023-03-01T08:26:38;26.77;;;15.17;;
54993;SDS011;40891;47.242;8.648;2023-03-01T08:29:04;28.57;;;15.03;;
54993;SDS011;40891;47.242;8.648;2023-03-01T08:31:31;28.07;;;14.50;;
54993;SDS011;40891;47.242;8.648;2023-03-01T08:34:01;28.20;;;14.90;;
54993;SDS011;40891;47.242;8.648;2023-03-01T08:36:29;27.47;;;14.63;;
54993;SDS011;40891;47.242;8.648;2023-03-01T08:38:55;29.83;;;14.53;;
54993;SDS011;40891;47.242;8.648;2023-03-01T08:41:21;31.90;;;16.00;;
54993;SDS011;40891;47.242;8.648;2023-03-01T08:43:47;29.73;;;14.27;;
54993;SDS011;40891;47.242;8.648;2023-03-01T08:46:12;29.00;;;15.30;;
54993;SDS011;40891;47.242;8.648;2023-03-01T08:48:38;27.63;;;14.87;;
54993;SDS011;40891;47.242;8.648;2023-03-01T08:51:08;29.43;;;16.07;;
54993;SDS011;40891;47.242;8.648;2023-03-01T08:53:33;28.23;;;14.77;;
54993;SDS011;40891;47.242;8.648;2023-03-01T08:56:01;30.77;;;15.27;;
54993;SDS011;40891;47.242;8.648;2023-03-01T08:58:27;29.90;;;15.83;;
54993;SDS011;40891;47.242;8.648;2023-03-01T09:00:53;29.47;;;15.57;;
54993;SDS011;40891;47.242;8.648;2023-03-01T09:03:18;27.77;;;14.90;;
54993;SDS011;40891;47.242;8.648;2023-03-01T09:05:44;27.67;;;13.97;;
54993;SDS011;40891;47.242;8.648;2023-03-01T09:08:10;31.97;;;15.83;;
54993;SDS011;40891;47.242;8.648;2023-03-01T09:10:37;26.37;;;14.03;;
54993;SDS011;40891;47.242;8.648;2023-03-01T09:13:04;26.07;;;13.30;;
54993;SDS011;40891;47.242;8.648;2023-03-01T09:15:29;30.20;;;14.20;;
54993;SDS011;40891;47.242;8.648;2023-03-01T09:17:54;24.97;;;13.27;;
54993;SDS011;40891;47.242;8.648;2023-03-01T09:20:20;29.23;;;14.10;;
54993;SDS011;40891;47.242;8.648;2023-03-01T09:22:45;25.87;;;14.40;;
54993;SDS011;40891;47.242;8.648;2023-03-01T09:25:10;26.53;;;13.63;;
54993;SDS011;40891;47.242;8.648;2023-03-01T09:27:36;25.37;;;13.57;;
54993;SDS011;40891;47.242;8.648;2023-03-01T09:30:01;28.70;;;13.80;;
54993;SDS011;40891;47.242;8.648;2023-03-01T09:32:27;24.70;;;13.30;;
54993;SDS011;40891;47.242;8.648;2023-03-01T09:34:55;24.00;;;13.27;;
54993;SDS011;40891;47.242;8.648;2023-03-01T09:37:29;23.30;;;12.67;;
54993;SDS011;40891;47.242;8.648;2023-03-01T09:39:55;23.47;;;13.33;;
54993;SDS011;40891;47.242;8.648;2023-03-01T09:42:20;26.17;;;14.70;;
54993;SDS011;40891;47.242;8.648;2023-03-01T09:44:51;23.70;;;13.80;;
54993;SDS011;40891;47.242;8.648;2023-03-01T09:47:24;26.97;;;13.53;;
54993;SDS011;40891;47.242;8.648;2023-03-01T09:49:56;32.60;;;14.87;;
54993;SDS011;40891;47.242;8.648;2023-03-01T09:52:42;24.37;;;13.50;;
54993;SDS011;40891;47.242;8.648;2023-03-01T10:01:23;21.80;;;12.10;;
54993;SDS011;40891;47.242;8.648;2023-03-01T10:04:10;21.67;;;11.77;;
54993;SDS011;40891;47.242;8.648;2023-03-01T10:06:36;22.30;;;12.03;;
54993;SDS011;40891;47.242;8.648;2023-03-01T10:09:05;25.43;;;13.27;;
54993;SDS011;40891;47.242;8.648;2023-03-01T10:11:37;24.03;;;12.83;;
54993;SDS011;40891;47.242;8.648;2023-03-01T10:16:43;21.90;;;13.00;;
54993;SDS011;40891;47.242;8.648;2023-03-01T10:19:27;23.10;;;12.77;;
54993;SDS011;40891;47.242;8.648;2023-03-01T10:21:57;24.23;;;12.47;;
54993;SDS011;40891;47.242;8.648;2023-03-01T10:24:31;22.27;;;11.50;;
54993;SDS011;40891;47.242;8.648;2023-03-01T10:27:22;21.40;;;12.23;;
54993;SDS011;40891;47.242;8.648;2023-03-01T10:30:07;22.20;;;13.13;;
54993;SDS011;40891;47.242;8.648;2023-03-01T10:32:41;23.53;;;12.87;;
54993;SDS011;40891;47.242;8.648;2023-03-01T10:35:17;21.13;;;12.33;;
54993;SDS011;40891;47.242;8.648;2023-03-01T10:40:23;22.20;;;12.20;;
54993;SDS011;40891;47.242;8.648;2023-03-01T10:42:48;23.90;;;12.47;;
54993;SDS011;40891;47.242;8.648;2023-03-01T10:45:16;22.17;;;12.23;;
54993;SDS011;40891;47.242;8.648;2023-03-01T10:47:42;19.30;;;11.40;;
54993;SDS011;40891;47.242;8.648;2023-03-01T10:50:22;24.67;;;12.60;;
54993;SDS011;40891;47.242;8.648;2023-03-01T10:52:56;19.97;;;11.30;;
54993;SDS011;40891;47.242;8.648;2023-03-01T10:55:31;20.97;;;11.23;;
54993;SDS011;40891;47.242;8.648;2023-03-01T10:58:08;24.23;;;11.90;;
54993;SDS011;40891;47.242;8.648;2023-03-01T11:00:53;21.07;;;11.67;;
54993;SDS011;40891;47.242;8.648;2023-03-01T11:03:38;24.00;;;11.83;;
54993;SDS011;40891;47.242;8.648;2023-03-01T11:08:35;23.57;;;12.17;;
54993;SDS011;40891;47.242;8.648;2023-03-01T11:14:00;21.53;;;11.83;;
54993;SDS011;40891;47.242;8.648;2023-03-01T11:16:35;24.27;;;11.83;;
54993;SDS011;40891;47.242;8.648;2023-03-01T11:21:34;20.73;;;11.67;;
54993;SDS011;40891;47.242;8.648;2023-03-01T11:24:04;22.37;;;12.70;;
54993;SDS011;40891;47.242;8.648;2023-03-01T11:26:36;22.27;;;13.33;;
54993;SDS011;40891;47.242;8.648;2023-03-01T11:29:06;23.20;;;12.57;;
54993;SDS011;40891;47.242;8.648;2023-03-01T11:31:37;22.83;;;12.73;;
54993;SDS011;40891;47.242;8.648;2023-03-01T11:34:16;23.10;;;12.37;;
54993;SDS011;40891;47.242;8.648;2023-03-01T11:36:52;19.53;;;11.03;;
54993;SDS011;40891;47.242;8.648;2023-03-01T11:39:25;22.47;;;12.43;;
54993;SDS011;40891;47.242;8.648;2023-03-01T11:42:02;19.50;;;11.37;;
54993;SDS011;40891;47.242;8.648;2023-03-01T11:44:42;20.63;;;11.73;;
54993;SDS011;40891;47.242;8.648;2023-03-01T11:49:58;22.23;;;12.07;;
54993;SDS011;40891;47.242;8.648;2023-03-01T11:52:35;21.17;;;12.53;;
54993;SDS011;40891;47.242;8.648;2023-03-01T12:25:12;22.30;;;12.03;;
54993;SDS011;40891;47.242;8.648;2023-03-01T12:27:48;20.03;;;11.83;;
54993;SDS011;40891;47.242;8.648;2023-03-01T12:30:31;22.50;;;12.23;;
54993;SDS011;40891;47.242;8.648;2023-03-01T12:38:50;22.87;;;13.10;;
54993;SDS011;40891;47.242;8.648;2023-03-01T12:41:42;24.57;;;13.23;;
54993;SDS011;40891;47.242;8.648;2023-03-01T12:46:59;22.40;;;12.80;;
54993;SDS011;40891;47.242;8.648;2023-03-01T12:49:35;22.03;;;12.60;;
54993;SDS011;40891;47.242;8.648;2023-03-01T12:54:41;24.37;;;13.37;;
54993;SDS011;40891;47.242;8.648;2023-03-01T13:02:37;22.03;;;12.80;;
54993;SDS011;40891;47.242;8.648;2023-03-01T13:08:11;24.43;;;12.40;;
54993;SDS011;40891;47.242;8.648;2023-03-01T13:10:49;23.20;;;13.20;;
54993;SDS011;40891;47.242;8.648;2023-03-01T13:13:24;24.17;;;12.80;;
54993;SDS011;40891;47.242;8.648;2023-03-01T13:15:52;20.67;;;12.33;;
54993;SDS011;40891;47.242;8.648;2023-03-01T13:20:51;25.83;;;13.47;;
54993;SDS011;40891;47.242;8.648;2023-03-01T13:30:59;25.73;;;12.90;;
54993;SDS011;40891;47.242;8.648;2023-03-01T13:35:52;21.63;;;12.73;;
54993;SDS011;40891;47.242;8.648;2023-03-01T13:41:06;23.57;;;12.67;;
54993;SDS011;40891;47.242;8.648;2023-03-01T13:43:35;22.47;;;12.17;;
54993;SDS011;40891;47.242;8.648;2023-03-01T13:46:07;20.50;;;12.73;;
54993;SDS011;40891;47.242;8.648;2023-03-01T13:48:36;22.97;;;12.37;;
54993;SDS011;40891;47.242;8.648;2023-03-01T13:51:05;24.93;;;12.73;;
54993;SDS011;40891;47.242;8.648;2023-03-01T13:53:34;25.93;;;12.47;;
54993;SDS011;40891;47.242;8.648;2023-03-01T13:56:14;22.20;;;12.97;;
54993;SDS011;40891;47.242;8.648;2023-03-01T13:58:57;23.93;;;12.63;;
54993;SDS011;40891;47.242;8.648;2023-03-01T14:03:57;19.13;;;11.87;;
54993;SDS011;40891;47.242;8.648;2023-03-01T14:06:27;21.40;;;12.50;;
54993;SDS011;40891;47.242;8.648;2023-03-01T14:09:01;23.07;;;13.33;;
54993;SDS011;40891;47.242;8.648;2023-03-01T14:20:11;23.10;;;12.63;;
54993;SDS011;40891;47.242;8.648;2023-03-01T14:22:41;21.73;;;12.77;;
54993;SDS011;40891;47.242;8.648;2023-03-01T14:27:42;21.53;;;12.33;;
54993;SDS011;40891;47.242;8.648;2023-03-01T14:30:15;27.27;;;13.30;;
54993;SDS011;40891;47.242;8.648;2023-03-01T14:32:56;22.97;;;12.97;;
54993;SDS011;40891;47.242;8.648;2023-03-01T14:35:25;20.50;;;12.70;;
54993;SDS011;40891;47.242;8.648;2023-03-01T14:37:53;23.03;;;12.40;;
54993;SDS011;40891;47.242;8.648;2023-03-01T14:40:22;23.33;;;13.13;;
54993;SDS011;40891;47.242;8.648;2023-03-01T14:42:50;27.70;;;13.43;;
54993;SDS011;40891;47.242;8.648;2023-03-01T14:45:17;24.80;;;13.73;;
54993;SDS011;40891;47.242;8.648;2023-03-01T14:47:43;24.17;;;13.40;;
54993;SDS011;40891;47.242;8.648;2023-03-01T14:50:15;25.80;;;13.90;;
54993;SDS011;40891;47.242;8.648;2023-03-01T14:52:55;23.33;;;13.03;;
54993;SDS011;40891;47.242;8.648;2023-03-01T14:55:29;25.40;;;13.63;;
54993;SDS011;40891;47.242;8.648;2023-03-01T14:57:57;24.27;;;12.80;;
54993;SDS011;40891;47.242;8.648;2023-03-01T15:00:23;23.40;;;13.23;;
54993;SDS011;40891;47.242;8.648;2023-03-01T15:02:52;21.47;;;12.37;;
54993;SDS011;40891;47.242;8.648;2023-03-01T15:05:22;23.63;;;13.13;;
54993;SDS011;40891;47.242;8.648;2023-03-01T15:08:00;27.27;;;14.23;;
54993;SDS011;40891;47.242;8.648;2023-03-01T15:10:28;22.23;;;12.67;;
54993;SDS011;40891;47.242;8.648;2023-03-01T15:12:55;24.93;;;13.20;;
54993;SDS011;40891;47.242;8.648;2023-03-01T15:17:53;24.77;;;13.77;;
54993;SDS011;40891;47.242;8.648;2023-03-01T15:20:22;25.73;;;13.37;;
54993;SDS011;40891;47.242;8.648;2023-03-01T15:22:50;27.83;;;13.30;;
54993;SDS011;40891;47.242;8.648;2023-03-01T15:25:18;24.20;;;13.53;;
54993;SDS011;40891;47.242;8.648;2023-03-01T15:27:46;23.40;;;13.70;;
54993;SDS011;40891;47.242;8.648;2023-03-01T15:30:22;26.03;;;14.30;;
54993;SDS011;40891;47.242;8.648;2023-03-01T15:35:50;27.23;;;14.83;;
54993;SDS011;40891;47.242;8.648;2023-03-01T15:40:54;27.17;;;14.10;;
54993;SDS011;40891;47.242;8.648;2023-03-01T15:46:17;28.27;;;14.73;;
54993;SDS011;40891;47.242;8.648;2023-03-01T15:48:48;23.37;;;13.00;;
54993;SDS011;40891;47.242;8.648;2023-03-01T15:51:17;23.47;;;13.63;;
54993;SDS011;40891;47.242;8.648;2023-03-01T15:53:50;27.17;;;13.63;;
54993;SDS011;40891;47.242;8.648;2023-03-01T15:56:17;23.50;;;13.53;;
54993;SDS011;40891;47.242;8.648;2023-03-01T15:58:43;25.80;;;13.80;;
54993;SDS011;40891;47.242;8.648;2023-03-01T16:01:10;25.03;;;13.77;;
54993;SDS011;40891;47.242;8.648;2023-03-01T16:03:38;26.10;;;13.93;;
54993;SDS011;40891;47.242;8.648;2023-03-01T16:06:03;26.97;;;14.33;;
54993;SDS011;40891;47.242;8.648;2023-03-01T16:08:29;28.53;;;14.57;;
54993;SDS011;40891;47.242;8.648;2023-03-01T16:10:54;26.07;;;14.60;;
54993;SDS011;40891;47.242;8.648;2023-03-01T16:13:19;29.80;;;15.30;;
54993;SDS011;40891;47.242;8.648;2023-03-01T16:15:45;30.07;;;15.87;;
54993;SDS011;40891;47.242;8.648;2023-03-01T16:18:10;27.30;;;15.13;;
54993;SDS011;40891;47.242;8.648;2023-03-01T16:20:36;26.63;;;15.23;;
54993;SDS011;40891;47.242;8.648;2023-03-01T16:23:03;30.23;;;15.23;;